sensor_id;sensor_type;location;lat;lon;timestamp;P1;durP1;ratioP1;P2;durP2;ratioP2
21721;SDS011;11023;48.274;7.794;2023-04-15T00:01:35;9.02;;;3.08;;
21721;SDS011;11023;48.274;7.794;2023-04-15T00:04:02;7.25;;;3.10;;
21721;SDS011;11023;48.274;7.794;2023-04-15T00:06:29;6.20;;;3.00;;
21721;SDS011;11023;48.274;7.794;2023-04-15T00:08:55;6.53;;;3.15;;
21721;SDS011;11023;48.274;7.794;2023-04-15T00:11:24;7.85;;;3.17;;
21721;SDS011;11023;48.274;7.794;2023-04-15T00:13:50;10.07;;;4.30;;
21721;SDS011;11023;48.274;7.794;2023-04-15T00:16:17;9.57;;;4.43;;
21721;SDS011;11023;48.274;7.794;2023-04-15T00:18:43;9.75;;;4.03;;
21721;SDS011;11023;48.274;7.794;2023-04-15T00:21:08;8.30;;;3.10;;
21721;SDS011;11023;48.274;7.794;2023-04-15T00:23:34;6.28;;;2.83;;
21721;SDS011;11023;48.274;7.794;2023-04-15T00:26:00;7.47;;;2.78;;
21721;SDS011;11023;48.274;7.794;2023-04-15T00:28:26;4.75;;;2.20;;
21721;SDS011;11023;48.274;7.794;2023-04-15T00:30:52;4.40;;;1.98;;
21721;SDS011;11023;48.274;7.794;2023-04-15T00:33:18;5.13;;;1.67;;
21721;SDS011;11023;48.274;7.794;2023-04-15T00:35:44;4.43;;;1.70;;
21721;SDS011;11023;48.274;7.794;2023-04-15T00:38:10;5.32;;;1.60;;
21721;SDS011;11023;48.274;7.794;2023-04-15T00:40:37;2.67;;;1.20;;
21721;SDS011;11023;48.274;7.794;2023-04-15T00:43:03;4.47;;;1.48;;
21721;SDS011;11023;48.274;7.794;2023-04-15T00:45:29;6.70;;;1.58;;
21721;SDS011;11023;48.274;7.794;2023-04-15T00:47:56;5.50;;;1.80;;
21721;SDS011;11023;48.274;7.794;2023-04-15T00:50:23;5.63;;;1.80;;
21721;SDS011;11023;48.274;7.794;2023-04-15T00:52:48;4.45;;;1.65;;
21721;SDS011;11023;48.274;7.794;2023-04-15T00:55:14;5.95;;;2.00;;
21721;SDS011;11023;48.274;7.794;2023-04-15T00:57:40;4.07;;;1.95;;
21721;SDS011;11023;48.274;7.794;2023-04-15T01:00:07;6.70;;;2.15;;
21721;SDS011;11023;48.274;7.794;2023-04-15T01:02:34;5.07;;;2.00;;
21721;SDS011;11023;48.274;7.794;2023-04-15T01:05:00;4.43;;;2.50;;
21721;SDS011;11023;48.274;7.794;2023-04-15T01:07:30;6.57;;;2.47;;
21721;SDS011;11023;48.274;7.794;2023-04-15T01:09:56;7.47;;;2.70;;
21721;SDS011;11023;48.274;7.794;2023-04-15T01:12:22;5.60;;;2.50;;
21721;SDS011;11023;48.274;7.794;2023-04-15T01:14:50;6.05;;;2.28;;
21721;SDS011;11023;48.274;7.794;2023-04-15T01:17:17;7.57;;;2.55;;
21721;SDS011;11023;48.274;7.794;2023-04-15T01:19:43;5.85;;;2.25;;
21721;SDS011;11023;48.274;7.794;2023-04-15T01:22:10;5.05;;;2.40;;
21721;SDS011;11023;48.274;7.794;2023-04-15T01:24:36;7.55;;;2.15;;
21721;SDS011;11023;48.274;7.794;2023-04-15T01:27:03;3.38;;;1.80;;
21721;SDS011;11023;48.274;7.794;2023-04-15T01:29:30;5.45;;;2.10;;
21721;SDS011;11023;48.274;7.794;2023-04-15T01:31:56;4.80;;;1.75;;
21721;SDS011;11023;48.274;7.794;2023-04-15T01:34:22;4.20;;;1.50;;
21721;SDS011;11023;48.274;7.794;2023-04-15T01:36:48;4.32;;;1.50;;
21721;SDS011;11023;48.274;7.794;2023-04-15T01:39:16;3.03;;;1.20;;
21721;SDS011;11023;48.274;7.794;2023-04-15T01:41:42;6.05;;;1.50;;
21721;SDS011;11023;48.274;7.794;2023-04-15T01:44:08;3.22;;;1.10;;
21721;SDS011;11023;48.274;7.794;2023-04-15T01:46:34;3.28;;;1.60;;
21721;SDS011;11023;48.274;7.794;2023-04-15T01:48:59;4.65;;;1.85;;
21721;SDS011;11023;48.274;7.794;2023-04-15T01:51:25;3.55;;;1.50;;
21721;SDS011;11023;48.274;7.794;2023-04-15T01:53:51;3.03;;;1.38;;
21721;SDS011;11023;48.274;7.794;2023-04-15T01:56:17;4.95;;;1.40;;
21721;SDS011;11023;48.274;7.794;2023-04-15T01:58:43;5.65;;;1.90;;
21721;SDS011;11023;48.274;7.794;2023-04-15T02:01:09;3.72;;;1.50;;
21721;SDS011;11023;48.274;7.794;2023-04-15T02:03:37;3.80;;;1.70;;
21721;SDS011;11023;48.274;7.794;2023-04-15T02:06:03;4.80;;;1.67;;
21721;SDS011;11023;48.274;7.794;2023-04-15T02:08:30;6.07;;;1.80;;
21721;SDS011;11023;48.274;7.794;2023-04-15T02:10:55;4.30;;;1.95;;
21721;SDS011;11023;48.274;7.794;2023-04-15T02:13:21;4.50;;;1.58;;
21721;SDS011;11023;48.274;7.794;2023-04-15T02:15:47;6.53;;;1.73;;
21721;SDS011;11023;48.274;7.794;2023-04-15T02:18:14;6.10;;;1.98;;
21721;SDS011;11023;48.274;7.794;2023-04-15T02:20:40;5.70;;;2.03;;
21721;SDS011;11023;48.274;7.794;2023-04-15T02:23:07;5.05;;;1.38;;
21721;SDS011;11023;48.274;7.794;2023-04-15T02:25:33;3.65;;;1.13;;
21721;SDS011;11023;48.274;7.794;2023-04-15T02:27:59;4.03;;;1.48;;
21721;SDS011;11023;48.274;7.794;2023-04-15T02:30:25;4.45;;;1.50;;
21721;SDS011;11023;48.274;7.794;2023-04-15T02:32:51;5.32;;;1.55;;
21721;SDS011;11023;48.274;7.794;2023-04-15T02:35:16;4.20;;;1.40;;
21721;SDS011;11023;48.274;7.794;2023-04-15T02:37:45;6.05;;;1.58;;
21721;SDS011;11023;48.274;7.794;2023-04-15T02:40:11;5.13;;;1.80;;
21721;SDS011;11023;48.274;7.794;2023-04-15T02:42:37;4.70;;;1.50;;
21721;SDS011;11023;48.274;7.794;2023-04-15T02:45:04;3.42;;;1.55;;
21721;SDS011;11023;48.274;7.794;2023-04-15T02:47:31;5.93;;;1.90;;
21721;SDS011;11023;48.274;7.794;2023-04-15T02:49:56;4.07;;;1.70;;
21721;SDS011;11023;48.274;7.794;2023-04-15T02:52:24;7.30;;;2.28;;
21721;SDS011;11023;48.274;7.794;2023-04-15T02:54:50;3.58;;;1.80;;
21721;SDS011;11023;48.274;7.794;2023-04-15T02:57:16;4.68;;;1.77;;
21721;SDS011;11023;48.274;7.794;2023-04-15T02:59:41;3.90;;;2.30;;
21721;SDS011;11023;48.274;7.794;2023-04-15T03:02:07;6.60;;;2.30;;
21721;SDS011;11023;48.274;7.794;2023-04-15T03:04:32;4.28;;;1.90;;
21721;SDS011;11023;48.274;7.794;2023-04-15T03:06:58;7.90;;;1.92;;
21721;SDS011;11023;48.274;7.794;2023-04-15T03:09:25;4.07;;;1.80;;
21721;SDS011;11023;48.274;7.794;2023-04-15T03:11:53;4.97;;;2.10;;
21721;SDS011;11023;48.274;7.794;2023-04-15T03:14:19;4.88;;;1.90;;
21721;SDS011;11023;48.274;7.794;2023-04-15T03:16:44;6.88;;;1.92;;
21721;SDS011;11023;48.274;7.794;2023-04-15T03:19:10;4.28;;;1.40;;
21721;SDS011;11023;48.274;7.794;2023-04-15T03:21:36;5.30;;;1.70;;
21721;SDS011;11023;48.274;7.794;2023-04-15T03:24:01;4.53;;;1.77;;
21721;SDS011;11023;48.274;7.794;2023-04-15T03:26:28;5.68;;;1.60;;
21721;SDS011;11023;48.274;7.794;2023-04-15T03:28:55;3.40;;;1.33;;
21721;SDS011;11023;48.274;7.794;2023-04-15T03:31:21;4.50;;;1.50;;
21721;SDS011;11023;48.274;7.794;2023-04-15T03:33:47;5.60;;;1.70;;
21721;SDS011;11023;48.274;7.794;2023-04-15T03:36:12;3.15;;;1.23;;
21721;SDS011;11023;48.274;7.794;2023-04-15T03:38:38;5.30;;;1.60;;
21721;SDS011;11023;48.274;7.794;2023-04-15T03:41:04;2.72;;;1.70;;
21721;SDS011;11023;48.274;7.794;2023-04-15T03:43:30;4.10;;;1.90;;
21721;SDS011;11023;48.274;7.794;2023-04-15T03:45:55;5.07;;;2.17;;
21721;SDS011;11023;48.274;7.794;2023-04-15T03:48:21;4.53;;;1.27;;
21721;SDS011;11023;48.274;7.794;2023-04-15T03:50:47;2.65;;;1.40;;
21721;SDS011;11023;48.274;7.794;2023-04-15T03:53:13;3.22;;;1.55;;
21721;SDS011;11023;48.274;7.794;2023-04-15T03:55:39;5.45;;;1.60;;
21721;SDS011;11023;48.274;7.794;2023-04-15T03:58:05;2.53;;;1.67;;
21721;SDS011;11023;48.274;7.794;2023-04-15T04:00:30;5.40;;;1.52;;
21721;SDS011;11023;48.274;7.794;2023-04-15T04:02:56;4.45;;;1.58;;
21721;SDS011;11023;48.274;7.794;2023-04-15T04:05:22;2.28;;;1.25;;
21721;SDS011;11023;48.274;7.794;2023-04-15T04:07:48;7.07;;;2.67;;
21721;SDS011;11023;48.274;7.794;2023-04-15T04:10:13;6.40;;;2.45;;
21721;SDS011;11023;48.274;7.794;2023-04-15T04:12:39;5.22;;;2.40;;
21721;SDS011;11023;48.274;7.794;2023-04-15T04:15:05;7.20;;;3.05;;
21721;SDS011;11023;48.274;7.794;2023-04-15T04:17:32;6.95;;;2.60;;
21721;SDS011;11023;48.274;7.794;2023-04-15T04:19:57;6.35;;;2.80;;
21721;SDS011;11023;48.274;7.794;2023-04-15T04:22:23;4.47;;;2.50;;
21721;SDS011;11023;48.274;7.794;2023-04-15T04:24:49;9.82;;;2.88;;
21721;SDS011;11023;48.274;7.794;2023-04-15T04:27:15;4.70;;;2.45;;
21721;SDS011;11023;48.274;7.794;2023-04-15T04:29:41;7.15;;;2.13;;
21721;SDS011;11023;48.274;7.794;2023-04-15T04:32:07;4.20;;;2.22;;
21721;SDS011;11023;48.274;7.794;2023-04-15T04:34:32;5.38;;;2.10;;
21721;SDS011;11023;48.274;7.794;2023-04-15T04:36:58;6.85;;;2.20;;
21721;SDS011;11023;48.274;7.794;2023-04-15T04:39:24;4.80;;;2.20;;
21721;SDS011;11023;48.274;7.794;2023-04-15T04:41:50;5.00;;;1.92;;
21721;SDS011;11023;48.274;7.794;2023-04-15T04:44:18;7.78;;;2.45;;
21721;SDS011;11023;48.274;7.794;2023-04-15T04:46:44;7.00;;;2.50;;
21721;SDS011;11023;48.274;7.794;2023-04-15T04:49:10;4.90;;;2.17;;
21721;SDS011;11023;48.274;7.794;2023-04-15T04:51:35;6.72;;;2.47;;
21721;SDS011;11023;48.274;7.794;2023-04-15T04:54:01;6.00;;;2.30;;
21721;SDS011;11023;48.274;7.794;2023-04-15T04:56:26;7.15;;;2.30;;
21721;SDS011;11023;48.274;7.794;2023-04-15T04:58:52;6.97;;;2.42;;
21721;SDS011;11023;48.274;7.794;2023-04-15T05:01:18;5.00;;;2.30;;
21721;SDS011;11023;48.274;7.794;2023-04-15T05:03:43;7.28;;;2.25;;
21721;SDS011;11023;48.274;7.794;2023-04-15T05:06:09;5.68;;;2.28;;
21721;SDS011;11023;48.274;7.794;2023-04-15T05:08:35;5.70;;;2.38;;
21721;SDS011;11023;48.274;7.794;2023-04-15T05:11:01;9.60;;;2.60;;
21721;SDS011;11023;48.274;7.794;2023-04-15T05:13:27;5.13;;;2.30;;
21721;SDS011;11023;48.274;7.794;2023-04-15T05:15:54;6.22;;;2.15;;
21721;SDS011;11023;48.274;7.794;2023-04-15T05:18:20;6.18;;;2.10;;
21721;SDS011;11023;48.274;7.794;2023-04-15T05:20:46;4.50;;;1.50;;
21721;SDS011;11023;48.274;7.794;2023-04-15T05:23:13;6.50;;;1.83;;
21721;SDS011;11023;48.274;7.794;2023-04-15T05:25:40;5.18;;;1.88;;
21721;SDS011;11023;48.274;7.794;2023-04-15T05:28:05;4.00;;;1.77;;
21721;SDS011;11023;48.274;7.794;2023-04-15T05:30:31;5.15;;;1.98;;
21721;SDS011;11023;48.274;7.794;2023-04-15T05:32:57;6.13;;;2.53;;
21721;SDS011;11023;48.274;7.794;2023-04-15T05:35:22;5.45;;;2.30;;
21721;SDS011;11023;48.274;7.794;2023-04-15T05:37:48;5.90;;;2.30;;
21721;SDS011;11023;48.274;7.794;2023-04-15T05:40:14;4.50;;;2.40;;
21721;SDS011;11023;48.274;7.794;2023-04-15T05:42:40;5.07;;;3.20;;
21721;SDS011;11023;48.274;7.794;2023-04-15T05:45:06;5.35;;;2.40;;
21721;SDS011;11023;48.274;7.794;2023-04-15T05:47:34;5.15;;;2.40;;
21721;SDS011;11023;48.274;7.794;2023-04-15T05:50:01;6.63;;;2.65;;
21721;SDS011;11023;48.274;7.794;2023-04-15T05:52:27;5.63;;;2.40;;
21721;SDS011;11023;48.274;7.794;2023-04-15T05:54:53;7.82;;;2.45;;
21721;SDS011;11023;48.274;7.794;2023-04-15T05:57:18;6.00;;;1.95;;
21721;SDS011;11023;48.274;7.794;2023-04-15T05:59:44;5.22;;;2.30;;
21721;SDS011;11023;48.274;7.794;2023-04-15T06:02:10;5.50;;;2.10;;
21721;SDS011;11023;48.274;7.794;2023-04-15T06:04:36;4.97;;;1.80;;
21721;SDS011;11023;48.274;7.794;2023-04-15T06:07:01;13.95;;;3.00;;
21721;SDS011;11023;48.274;7.794;2023-04-15T06:09:27;11.05;;;2.67;;
21721;SDS011;11023;48.274;7.794;2023-04-15T06:11:53;8.77;;;2.75;;
21721;SDS011;11023;48.274;7.794;2023-04-15T06:14:20;9.23;;;3.20;;
21721;SDS011;11023;48.274;7.794;2023-04-15T06:16:45;5.88;;;2.85;;
21721;SDS011;11023;48.274;7.794;2023-04-15T06:19:11;6.07;;;3.20;;
21721;SDS011;11023;48.274;7.794;2023-04-15T06:21:36;7.43;;;2.80;;
21721;SDS011;11023;48.274;7.794;2023-04-15T06:24:02;6.60;;;2.65;;
21721;SDS011;11023;48.274;7.794;2023-04-15T06:26:28;10.32;;;3.00;;
21721;SDS011;11023;48.274;7.794;2023-04-15T06:28:53;6.50;;;2.67;;
21721;SDS011;11023;48.274;7.794;2023-04-15T06:31:19;6.95;;;2.63;;
21721;SDS011;11023;48.274;7.794;2023-04-15T06:33:45;12.63;;;3.10;;
21721;SDS011;11023;48.274;7.794;2023-04-15T06:36:11;19.92;;;3.40;;
21721;SDS011;11023;48.274;7.794;2023-04-15T06:38:36;10.45;;;2.88;;
21721;SDS011;11023;48.274;7.794;2023-04-15T06:41:02;4.60;;;2.70;;
21721;SDS011;11023;48.274;7.794;2023-04-15T06:43:28;5.30;;;2.55;;
21721;SDS011;11023;48.274;7.794;2023-04-15T06:45:54;5.20;;;2.40;;
21721;SDS011;11023;48.274;7.794;2023-04-15T06:48:21;7.78;;;2.55;;
21721;SDS011;11023;48.274;7.794;2023-04-15T06:50:47;5.78;;;2.35;;
21721;SDS011;11023;48.274;7.794;2023-04-15T06:53:13;5.35;;;2.58;;
21721;SDS011;11023;48.274;7.794;2023-04-15T06:55:39;5.90;;;2.30;;
21721;SDS011;11023;48.274;7.794;2023-04-15T06:58:05;5.15;;;1.92;;
21721;SDS011;11023;48.274;7.794;2023-04-15T07:00:31;4.93;;;2.03;;
21721;SDS011;11023;48.274;7.794;2023-04-15T07:02:58;5.10;;;2.08;;
21721;SDS011;11023;48.274;7.794;2023-04-15T07:05:27;3.60;;;2.08;;
21721;SDS011;11023;48.274;7.794;2023-04-15T07:07:53;5.80;;;2.03;;
21721;SDS011;11023;48.274;7.794;2023-04-15T07:10:19;4.53;;;1.95;;
21721;SDS011;11023;48.274;7.794;2023-04-15T07:12:45;5.13;;;2.28;;
21721;SDS011;11023;48.274;7.794;2023-04-15T07:15:12;9.27;;;2.88;;
21721;SDS011;11023;48.274;7.794;2023-04-15T07:17:39;8.50;;;3.00;;
21721;SDS011;11023;48.274;7.794;2023-04-15T07:20:05;4.80;;;2.50;;
21721;SDS011;11023;48.274;7.794;2023-04-15T07:22:32;4.45;;;2.17;;
21721;SDS011;11023;48.274;7.794;2023-04-15T07:24:58;5.55;;;2.40;;
21721;SDS011;11023;48.274;7.794;2023-04-15T07:27:23;3.72;;;1.95;;
21721;SDS011;11023;48.274;7.794;2023-04-15T07:29:49;5.43;;;2.47;;
21721;SDS011;11023;48.274;7.794;2023-04-15T07:32:16;4.53;;;2.22;;
21721;SDS011;11023;48.274;7.794;2023-04-15T07:34:41;5.72;;;2.60;;
21721;SDS011;11023;48.274;7.794;2023-04-15T07:37:08;5.15;;;2.45;;
21721;SDS011;11023;48.274;7.794;2023-04-15T07:39:34;4.20;;;2.75;;
21721;SDS011;11023;48.274;7.794;2023-04-15T07:41:59;8.68;;;3.25;;
21721;SDS011;11023;48.274;7.794;2023-04-15T07:44:25;7.75;;;3.90;;
21721;SDS011;11023;48.274;7.794;2023-04-15T07:46:51;9.13;;;3.67;;
21721;SDS011;11023;48.274;7.794;2023-04-15T07:49:17;6.10;;;3.65;;
21721;SDS011;11023;48.274;7.794;2023-04-15T07:51:46;9.25;;;3.65;;
21721;SDS011;11023;48.274;7.794;2023-04-15T07:54:12;7.03;;;3.33;;
21721;SDS011;11023;48.274;7.794;2023-04-15T07:56:38;8.32;;;3.22;;
21721;SDS011;11023;48.274;7.794;2023-04-15T07:59:05;6.50;;;3.22;;
21721;SDS011;11023;48.274;7.794;2023-04-15T08:01:31;8.40;;;3.17;;
21721;SDS011;11023;48.274;7.794;2023-04-15T08:03:59;6.82;;;3.20;;
21721;SDS011;11023;48.274;7.794;2023-04-15T08:06:25;8.75;;;3.60;;
21721;SDS011;11023;48.274;7.794;2023-04-15T08:08:51;6.68;;;3.00;;
21721;SDS011;11023;48.274;7.794;2023-04-15T08:11:18;4.68;;;2.20;;
21721;SDS011;11023;48.274;7.794;2023-04-15T08:13:45;4.25;;;1.77;;
21721;SDS011;11023;48.274;7.794;2023-04-15T08:16:20;3.80;;;1.60;;
21721;SDS011;11023;48.274;7.794;2023-04-15T08:18:48;3.88;;;1.85;;
21721;SDS011;11023;48.274;7.794;2023-04-15T08:21:17;4.93;;;1.70;;
21721;SDS011;11023;48.274;7.794;2023-04-15T08:23:47;5.10;;;1.77;;
21721;SDS011;11023;48.274;7.794;2023-04-15T08:26:16;2.60;;;1.60;;
21721;SDS011;11023;48.274;7.794;2023-04-15T08:28:43;4.30;;;2.15;;
21721;SDS011;11023;48.274;7.794;2023-04-15T08:31:10;5.72;;;1.88;;
21721;SDS011;11023;48.274;7.794;2023-04-15T08:33:40;4.30;;;1.80;;
21721;SDS011;11023;48.274;7.794;2023-04-15T08:36:06;3.15;;;2.05;;
21721;SDS011;11023;48.274;7.794;2023-04-15T08:38:32;5.20;;;1.80;;
21721;SDS011;11023;48.274;7.794;2023-04-15T08:40:59;6.82;;;2.00;;
21721;SDS011;11023;48.274;7.794;2023-04-15T08:43:28;3.83;;;1.80;;
21721;SDS011;11023;48.274;7.794;2023-04-15T08:45:59;4.80;;;1.98;;
21721;SDS011;11023;48.274;7.794;2023-04-15T08:48:27;5.78;;;1.80;;
21721;SDS011;11023;48.274;7.794;2023-04-15T08:50:56;3.83;;;1.98;;
21721;SDS011;11023;48.274;7.794;2023-04-15T08:53:23;3.22;;;1.85;;
21721;SDS011;11023;48.274;7.794;2023-04-15T08:55:50;5.65;;;1.92;;
21721;SDS011;11023;48.274;7.794;2023-04-15T08:58:16;4.68;;;2.17;;
21721;SDS011;11023;48.274;7.794;2023-04-15T09:00:43;4.85;;;2.05;;
21721;SDS011;11023;48.274;7.794;2023-04-15T09:03:09;5.57;;;2.08;;
21721;SDS011;11023;48.274;7.794;2023-04-15T09:05:35;5.72;;;1.67;;
21721;SDS011;11023;48.274;7.794;2023-04-15T09:08:02;5.20;;;1.80;;
21721;SDS011;11023;48.274;7.794;2023-04-15T09:10:29;3.75;;;1.85;;
21721;SDS011;11023;48.274;7.794;2023-04-15T09:12:55;6.95;;;2.08;;
21721;SDS011;11023;48.274;7.794;2023-04-15T09:15:23;5.38;;;2.13;;
21721;SDS011;11023;48.274;7.794;2023-04-15T09:17:51;3.47;;;2.30;;
21721;SDS011;11023;48.274;7.794;2023-04-15T09:20:17;3.78;;;2.00;;
21721;SDS011;11023;48.274;7.794;2023-04-15T09:22:43;5.93;;;2.33;;
21721;SDS011;11023;48.274;7.794;2023-04-15T09:27:57;3.47;;;1.77;;
21721;SDS011;11023;48.274;7.794;2023-04-15T09:30:24;3.88;;;1.75;;
21721;SDS011;11023;48.274;7.794;2023-04-15T09:32:52;5.00;;;1.73;;
21721;SDS011;11023;48.274;7.794;2023-04-15T09:35:20;4.05;;;2.15;;
21721;SDS011;11023;48.274;7.794;2023-04-15T09:37:46;4.47;;;2.08;;
21721;SDS011;11023;48.274;7.794;2023-04-15T09:40:13;5.65;;;2.50;;
21721;SDS011;11023;48.274;7.794;2023-04-15T09:42:56;6.68;;;2.40;;
21721;SDS011;11023;48.274;7.794;2023-04-15T09:45:22;4.53;;;2.00;;
21721;SDS011;11023;48.274;7.794;2023-04-15T09:47:48;5.50;;;2.58;;
21721;SDS011;11023;48.274;7.794;2023-04-15T09:50:15;9.05;;;2.15;;
21721;SDS011;11023;48.274;7.794;2023-04-15T09:52:42;6.10;;;2.17;;
21721;SDS011;11023;48.274;7.794;2023-04-15T09:55:08;5.93;;;2.63;;
21721;SDS011;11023;48.274;7.794;2023-04-15T09:57:35;4.22;;;2.20;;
21721;SDS011;11023;48.274;7.794;2023-04-15T10:00:04;7.57;;;2.00;;
21721;SDS011;11023;48.274;7.794;2023-04-15T10:02:32;4.55;;;1.50;;
21721;SDS011;11023;48.274;7.794;2023-04-15T10:05:00;8.13;;;1.65;;
21721;SDS011;11023;48.274;7.794;2023-04-15T10:07:27;4.13;;;1.77;;
21721;SDS011;11023;48.274;7.794;2023-04-15T10:09:53;5.25;;;1.67;;
21721;SDS011;11023;48.274;7.794;2023-04-15T10:12:20;7.45;;;2.47;;
21721;SDS011;11023;48.274;7.794;2023-04-15T10:14:47;5.72;;;1.90;;
21721;SDS011;11023;48.274;7.794;2023-04-15T10:17:17;6.07;;;2.00;;
21721;SDS011;11023;48.274;7.794;2023-04-15T10:19:46;6.28;;;1.60;;
21721;SDS011;11023;48.274;7.794;2023-04-15T10:22:13;3.13;;;1.60;;
21721;SDS011;11023;48.274;7.794;2023-04-15T10:24:39;5.75;;;1.60;;
21721;SDS011;11023;48.274;7.794;2023-04-15T10:27:05;6.22;;;1.92;;
21721;SDS011;11023;48.274;7.794;2023-04-15T10:29:32;6.13;;;2.30;;
21721;SDS011;11023;48.274;7.794;2023-04-15T10:31:58;5.65;;;2.13;;
21721;SDS011;11023;48.274;7.794;2023-04-15T10:34:25;3.85;;;2.30;;
21721;SDS011;11023;48.274;7.794;2023-04-15T10:36:55;6.90;;;2.47;;
21721;SDS011;11023;48.274;7.794;2023-04-15T10:39:38;6.03;;;2.30;;
21721;SDS011;11023;48.274;7.794;2023-04-15T10:42:05;6.13;;;2.50;;
21721;SDS011;11023;48.274;7.794;2023-04-15T10:44:32;4.10;;;1.80;;
21721;SDS011;11023;48.274;7.794;2023-04-15T10:47:00;4.80;;;1.60;;
21721;SDS011;11023;48.274;7.794;2023-04-15T10:49:34;5.95;;;1.70;;
21721;SDS011;11023;48.274;7.794;2023-04-15T10:52:09;4.18;;;1.75;;
21721;SDS011;11023;48.274;7.794;2023-04-15T10:54:34;3.25;;;1.67;;
21721;SDS011;11023;48.274;7.794;2023-04-15T10:59:28;3.80;;;1.73;;
21721;SDS011;11023;48.274;7.794;2023-04-15T11:01:55;3.33;;;1.80;;
21721;SDS011;11023;48.274;7.794;2023-04-15T11:07:32;6.40;;;2.20;;
21721;SDS011;11023;48.274;7.794;2023-04-15T11:12:48;4.32;;;2.13;;
21721;SDS011;11023;48.274;7.794;2023-04-15T11:17:59;4.53;;;1.63;;
21721;SDS011;11023;48.274;7.794;2023-04-15T11:20:46;4.47;;;1.83;;
21721;SDS011;11023;48.274;7.794;2023-04-15T11:23:18;5.05;;;1.80;;
21721;SDS011;11023;48.274;7.794;2023-04-15T11:25:53;5.22;;;1.90;;
21721;SDS011;11023;48.274;7.794;2023-04-15T11:28:20;6.32;;;1.92;;
21721;SDS011;11023;48.274;7.794;2023-04-15T11:30:50;5.05;;;2.20;;
21721;SDS011;11023;48.274;7.794;2023-04-15T11:33:16;4.97;;;2.20;;
21721;SDS011;11023;48.274;7.794;2023-04-15T11:35:42;4.72;;;2.10;;
21721;SDS011;11023;48.274;7.794;2023-04-15T11:38:08;5.82;;;1.90;;
21721;SDS011;11023;48.274;7.794;2023-04-15T11:40:38;3.45;;;1.80;;
21721;SDS011;11023;48.274;7.794;2023-04-15T11:43:09;5.13;;;1.70;;
21721;SDS011;11023;48.274;7.794;2023-04-15T11:45:36;4.65;;;1.50;;
21721;SDS011;11023;48.274;7.794;2023-04-15T11:48:12;4.15;;;1.48;;
21721;SDS011;11023;48.274;7.794;2023-04-15T11:50:38;2.95;;;1.30;;
21721;SDS011;11023;48.274;7.794;2023-04-15T11:53:05;4.32;;;1.70;;
21721;SDS011;11023;48.274;7.794;2023-04-15T11:55:51;5.85;;;1.40;;
21721;SDS011;11023;48.274;7.794;2023-04-15T11:58:18;4.53;;;1.90;;
21721;SDS011;11023;48.274;7.794;2023-04-15T12:00:57;5.55;;;1.80;;
21721;SDS011;11023;48.274;7.794;2023-04-15T12:11:13;2.90;;;1.30;;
21721;SDS011;11023;48.274;7.794;2023-04-15T12:13:46;6.60;;;1.73;;
21721;SDS011;11023;48.274;7.794;2023-04-15T12:16:16;3.95;;;1.52;;
21721;SDS011;11023;48.274;7.794;2023-04-15T12:18:48;4.35;;;1.50;;
21721;SDS011;11023;48.274;7.794;2023-04-15T12:21:18;4.93;;;2.13;;
21721;SDS011;11023;48.274;7.794;2023-04-15T12:23:51;4.60;;;1.95;;
21721;SDS011;11023;48.274;7.794;2023-04-15T12:26:25;5.45;;;1.80;;
21721;SDS011;11023;48.274;7.794;2023-04-15T12:28:59;4.57;;;2.00;;
21721;SDS011;11023;48.274;7.794;2023-04-15T12:31:29;5.25;;;1.80;;
21721;SDS011;11023;48.274;7.794;2023-04-15T12:33:55;4.03;;;1.50;;
21721;SDS011;11023;48.274;7.794;2023-04-15T12:36:22;5.40;;;1.52;;
21721;SDS011;11023;48.274;7.794;2023-04-15T12:38:48;4.38;;;1.65;;
21721;SDS011;11023;48.274;7.794;2023-04-15T12:41:13;5.72;;;2.13;;
21721;SDS011;11023;48.274;7.794;2023-04-15T12:43:39;4.47;;;1.92;;
21721;SDS011;11023;48.274;7.794;2023-04-15T12:46:06;4.50;;;1.60;;
21721;SDS011;11023;48.274;7.794;2023-04-15T12:48:32;6.18;;;1.80;;
21721;SDS011;11023;48.274;7.794;2023-04-15T12:50:58;4.15;;;1.75;;
21721;SDS011;11023;48.274;7.794;2023-04-15T12:53:24;4.88;;;1.77;;
21721;SDS011;11023;48.274;7.794;2023-04-15T12:55:50;3.47;;;1.13;;
21721;SDS011;11023;48.274;7.794;2023-04-15T12:58:16;3.10;;;1.00;;
21721;SDS011;11023;48.274;7.794;2023-04-15T13:00:42;3.55;;;1.52;;
21721;SDS011;11023;48.274;7.794;2023-04-15T13:03:08;1.95;;;0.90;;
21721;SDS011;11023;48.274;7.794;2023-04-15T13:05:34;2.83;;;1.08;;
21721;SDS011;11023;48.274;7.794;2023-04-15T13:08:01;4.57;;;1.10;;
21721;SDS011;11023;48.274;7.794;2023-04-15T13:10:28;2.90;;;1.00;;
21721;SDS011;11023;48.274;7.794;2023-04-15T13:12:53;3.97;;;0.90;;
21721;SDS011;11023;48.274;7.794;2023-04-15T13:15:21;3.67;;;1.00;;
21721;SDS011;11023;48.274;7.794;2023-04-15T13:17:47;2.92;;;0.90;;
21721;SDS011;11023;48.274;7.794;2023-04-15T13:20:12;3.83;;;1.42;;
21721;SDS011;11023;48.274;7.794;2023-04-15T13:22:39;4.47;;;1.30;;
21721;SDS011;11023;48.274;7.794;2023-04-15T13:25:05;4.45;;;1.23;;
21721;SDS011;11023;48.274;7.794;2023-04-15T13:27:31;4.93;;;1.10;;
21721;SDS011;11023;48.274;7.794;2023-04-15T13:29:57;2.63;;;1.10;;
21721;SDS011;11023;48.274;7.794;2023-04-15T13:32:23;2.70;;;1.00;;
21721;SDS011;11023;48.274;7.794;2023-04-15T13:34:49;3.97;;;1.10;;
21721;SDS011;11023;48.274;7.794;2023-04-15T13:37:15;2.60;;;1.10;;
21721;SDS011;11023;48.274;7.794;2023-04-15T13:39:41;2.78;;;1.30;;
21721;SDS011;11023;48.274;7.794;2023-04-15T13:42:06;3.45;;;1.10;;
21721;SDS011;11023;48.274;7.794;2023-04-15T13:44:32;3.45;;;1.27;;
21721;SDS011;11023;48.274;7.794;2023-04-15T13:46:58;2.00;;;1.00;;
21721;SDS011;11023;48.274;7.794;2023-04-15T13:49:23;3.38;;;1.13;;
21721;SDS011;11023;48.274;7.794;2023-04-15T13:51:49;3.25;;;0.98;;
21721;SDS011;11023;48.274;7.794;2023-04-15T13:54:16;2.97;;;1.00;;
21721;SDS011;11023;48.274;7.794;2023-04-15T13:56:41;1.98;;;1.02;;
21721;SDS011;11023;48.274;7.794;2023-04-15T13:59:07;3.95;;;0.85;;
21721;SDS011;11023;48.274;7.794;2023-04-15T14:01:33;3.00;;;1.00;;
21721;SDS011;11023;48.274;7.794;2023-04-15T14:03:59;2.72;;;0.75;;
21721;SDS011;11023;48.274;7.794;2023-04-15T14:06:25;4.22;;;1.35;;
21721;SDS011;11023;48.274;7.794;2023-04-15T14:08:52;2.38;;;1.02;;
21721;SDS011;11023;48.274;7.794;2023-04-15T14:11:18;3.60;;;1.40;;
21721;SDS011;11023;48.274;7.794;2023-04-15T14:13:44;3.78;;;1.00;;
21721;SDS011;11023;48.274;7.794;2023-04-15T14:16:10;2.53;;;0.82;;
21721;SDS011;11023;48.274;7.794;2023-04-15T14:18:35;3.85;;;1.67;;
21721;SDS011;11023;48.274;7.794;2023-04-15T14:21:01;2.83;;;1.27;;
21721;SDS011;11023;48.274;7.794;2023-04-15T14:23:27;2.20;;;1.00;;
21721;SDS011;11023;48.274;7.794;2023-04-15T14:25:53;2.58;;;0.90;;
21721;SDS011;11023;48.274;7.794;2023-04-15T14:28:19;2.92;;;1.40;;
21721;SDS011;11023;48.274;7.794;2023-04-15T14:30:45;4.82;;;1.10;;
21721;SDS011;11023;48.274;7.794;2023-04-15T14:33:10;3.90;;;1.17;;
21721;SDS011;11023;48.274;7.794;2023-04-15T14:35:36;4.93;;;1.38;;
21721;SDS011;11023;48.274;7.794;2023-04-15T14:38:03;2.45;;;0.90;;
21721;SDS011;11023;48.274;7.794;2023-04-15T14:40:30;4.60;;;1.80;;
21721;SDS011;11023;48.274;7.794;2023-04-15T14:42:57;3.25;;;1.10;;
21721;SDS011;11023;48.274;7.794;2023-04-15T14:45:22;4.30;;;1.48;;
21721;SDS011;11023;48.274;7.794;2023-04-15T14:47:48;3.20;;;1.25;;
21721;SDS011;11023;48.274;7.794;2023-04-15T14:50:14;4.45;;;1.27;;
21721;SDS011;11023;48.274;7.794;2023-04-15T14:52:40;2.65;;;1.17;;
21721;SDS011;11023;48.274;7.794;2023-04-15T14:55:09;4.85;;;1.77;;
21721;SDS011;11023;48.274;7.794;2023-04-15T14:57:36;7.70;;;2.20;;
21721;SDS011;11023;48.274;7.794;2023-04-15T15:00:02;5.45;;;2.60;;
21721;SDS011;11023;48.274;7.794;2023-04-15T15:02:29;4.53;;;2.50;;
21721;SDS011;11023;48.274;7.794;2023-04-15T15:04:55;6.05;;;1.77;;
21721;SDS011;11023;48.274;7.794;2023-04-15T15:07:21;4.97;;;1.70;;